createdAt,value
2022-08-21T00:01:46.973Z,13.48
2022-08-21T00:04:22.426Z,12.94
2022-08-21T00:06:51.237Z,11.40
2022-08-21T00:09:19.746Z,12.83
2022-08-21T00:11:48.797Z,13.31
2022-08-21T00:14:17.837Z,13.36
2022-08-21T00:16:46.028Z,13.33
2022-08-21T00:19:13.943Z,11.74
2022-08-21T00:21:44.297Z,13.29
2022-08-21T00:24:12.850Z,13.14
2022-08-21T00:26:41.205Z,13.23
2022-08-21T00:29:09.524Z,13.19
2022-08-21T00:31:39.460Z,12.94
2022-08-21T00:34:07.811Z,12.30
2022-08-21T00:36:37.151Z,13.09
2022-08-21T00:39:08.121Z,11.99
2022-08-21T00:41:39.133Z,11.71
2022-08-21T00:44:12.397Z,13.01
2022-08-21T00:46:41.388Z,12.99
2022-08-21T00:49:12.472Z,11.88
2022-08-21T00:51:46.086Z,10.73
2022-08-21T00:54:18.865Z,11.21
2022-08-21T00:56:50.186Z,11.77
2022-08-21T00:59:21.007Z,12.84
2022-08-21T01:01:49.318Z,12.82
2022-08-21T01:04:18.506Z,12.69
2022-08-21T01:06:46.562Z,12.35
2022-08-21T01:09:17.372Z,9.41
2022-08-21T01:11:45.597Z,11.05
2022-08-21T01:14:14.942Z,12.73
2022-08-21T01:16:46.005Z,11.95
2022-08-21T01:19:15.511Z,12.69
2022-08-21T01:21:45.617Z,12.65
2022-08-21T01:24:14.765Z,12.50
2022-08-21T01:26:44.473Z,11.11
2022-08-21T01:29:18.914Z,12.43
2022-08-21T01:31:47.399Z,12.51
2022-08-21T01:34:16.907Z,12.51
2022-08-21T01:36:47.880Z,10.93
2022-08-21T01:39:16.907Z,11.92
2022-08-21T01:41:45.612Z,12.44
2022-08-21T01:44:13.768Z,10.97
2022-08-21T01:46:41.992Z,12.40
2022-08-21T01:49:10.057Z,11.08
2022-08-21T01:51:38.220Z,10.63
2022-08-21T01:54:07.594Z,11.50
2022-08-21T01:56:39.244Z,10.81
2022-08-21T01:59:07.496Z,12.32
2022-08-21T02:01:36.200Z,12.27
2022-08-21T02:04:05.381Z,10.24
2022-08-21T02:06:33.883Z,11.18
2022-08-21T02:09:02.205Z,11.42
2022-08-21T02:11:31.987Z,10.50
2022-08-21T02:14:00.813Z,10.67
2022-08-21T02:16:29.974Z,8.70
2022-08-21T02:19:01.772Z,10.86
2022-08-21T02:21:29.771Z,11.95
2022-08-21T02:23:57.801Z,9.27
2022-08-21T02:26:26.109Z,9.90
2022-08-21T02:28:55.865Z,10.70
2022-08-21T02:31:23.945Z,11.98
2022-08-21T02:33:54.861Z,12.06
2022-08-21T02:36:22.831Z,10.32
2022-08-21T02:38:59.667Z,11.20
2022-08-21T02:41:27.918Z,11.92
2022-08-21T02:43:57.405Z,9.49
2022-08-21T02:46:25.304Z,11.97
2022-08-21T02:48:53.820Z,11.96
2022-08-21T02:51:23.392Z,9.69
2022-08-21T02:53:52.071Z,8.78
2022-08-21T02:56:22.899Z,8.57
2022-08-21T02:58:53.515Z,8.67
2022-08-21T03:01:26.196Z,10.16
2022-08-21T03:03:54.697Z,10.71
2022-08-21T03:06:25.646Z,8.93
2022-08-21T03:08:53.844Z,11.73
2022-08-21T03:11:22.742Z,10.52
2022-08-21T03:13:50.998Z,10.74
2022-08-21T03:16:19.776Z,8.98
2022-08-21T03:18:49.321Z,10.54
2022-08-21T03:21:20.052Z,10.42
2022-08-21T03:23:48.600Z,10.54
2022-08-21T03:26:16.790Z,8.22
2022-08-21T03:28:48.133Z,10.47
2022-08-21T03:31:17.777Z,10.17
2022-08-21T03:33:45.930Z,8.99
2022-08-21T03:36:15.656Z,8.35
2022-08-21T03:38:44.231Z,9.28
2022-08-21T03:41:12.408Z,8.34
2022-08-21T03:43:40.580Z,10.16
2022-08-21T03:46:09.369Z,10.09
2022-08-21T03:48:39.625Z,11.39
2022-08-21T03:51:08.631Z,10.14
2022-08-21T03:53:40.027Z,8.08
2022-08-21T03:56:09.263Z,8.35
2022-08-21T03:58:39.326Z,9.50
2022-08-21T04:01:08.542Z,10.19
2022-08-21T04:03:38.376Z,10.18
2022-08-21T04:06:08.324Z,9.83
2022-08-21T04:08:39.998Z,9.69
2022-08-21T04:11:08.459Z,8.68
2022-08-21T04:13:40.241Z,11.11
2022-08-21T04:16:13.527Z,8.64
2022-08-21T04:18:42.376Z,9.99
2022-08-21T04:21:12.500Z,10.66
2022-08-21T04:23:43.213Z,9.87
2022-08-21T04:26:11.706Z,9.99
2022-08-21T04:28:40.367Z,9.54
2022-08-21T04:31:08.970Z,8.94
2022-08-21T04:33:37.392Z,9.14
2022-08-21T04:36:08.161Z,7.63
2022-08-21T04:38:37.497Z,11.24
2022-08-21T04:41:08.016Z,9.11
2022-08-21T04:43:37.850Z,10.00
2022-08-21T04:46:06.741Z,9.96
2022-08-21T04:48:35.459Z,10.21
2022-08-21T04:51:17.043Z,7.86
2022-08-21T04:53:49.542Z,7.57
2022-08-21T04:56:46.616Z,7.93
2022-08-21T04:59:19.126Z,10.81
2022-08-21T05:01:49.256Z,10.23
2022-08-21T05:04:24.905Z,11.62
2022-08-21T05:06:56.661Z,7.97
2022-08-21T05:09:26.430Z,8.79
2022-08-21T05:11:56.673Z,8.87
2022-08-21T05:14:24.627Z,12.02
2022-08-21T05:16:52.701Z,11.07
2022-08-21T05:19:20.806Z,12.84
2022-08-21T05:21:49.371Z,13.46
2022-08-21T05:24:18.730Z,13.83
2022-08-21T05:26:47.094Z,14.21
2022-08-21T05:29:18.156Z,14.41
2022-08-21T05:31:48.080Z,14.44
2022-08-21T05:34:19.707Z,15.43
2022-08-21T05:36:48.136Z,15.96
2022-08-21T05:39:16.781Z,16.43
2022-08-21T05:41:44.688Z,14.81
2022-08-21T05:44:12.512Z,17.41
2022-08-21T05:46:41.722Z,16.85
2022-08-21T05:49:09.779Z,18.46
2022-08-21T05:51:37.815Z,18.83
2022-08-21T05:54:05.709Z,19.87
2022-08-21T05:56:33.843Z,20.53
2022-08-21T05:59:01.851Z,20.34
2022-08-21T06:01:29.777Z,19.98
2022-08-21T06:04:01.496Z,22.49
2022-08-21T06:06:31.077Z,22.54
2022-08-21T06:08:58.912Z,23.79
2022-08-21T06:11:28.970Z,24.39
2022-08-21T06:13:57.771Z,24.52
2022-08-21T06:16:25.667Z,24.42
2022-08-21T06:18:53.942Z,26.15
2022-08-21T06:21:23.105Z,25.58
2022-08-21T06:23:50.920Z,27.04
2022-08-21T06:26:18.788Z,26.87
2022-08-21T06:28:47.562Z,28.32
2022-08-21T06:31:28.365Z,28.49
2022-08-21T06:33:59.791Z,27.81
2022-08-21T06:36:29.205Z,29.96
2022-08-21T06:38:58.011Z,30.52
2022-08-21T06:41:26.478Z,31.11
2022-08-21T06:43:56.320Z,31.31
2022-08-21T06:46:25.187Z,31.90
2022-08-21T06:48:53.051Z,32.31
2022-08-21T06:51:20.939Z,32.97
2022-08-21T06:53:50.584Z,33.47
2022-08-21T06:56:18.948Z,34.07
2022-08-21T06:58:47.084Z,34.35
2022-08-21T07:01:14.977Z,34.96
2022-08-21T07:03:44.346Z,34.91
2022-08-21T07:06:12.950Z,35.77
2022-08-21T07:08:41.276Z,36.20
2022-08-21T07:11:14.690Z,36.27
2022-08-21T07:13:42.505Z,37.07
2022-08-21T07:16:10.302Z,37.36
2022-08-21T07:18:38.185Z,37.81
2022-08-21T07:21:08.423Z,38.12
2022-08-21T07:23:40.150Z,38.77
2022-08-21T07:26:10.061Z,38.75
2022-08-21T07:28:38.442Z,39.46
2022-08-21T07:31:08.168Z,39.70
2022-08-21T07:33:37.220Z,39.89
2022-08-21T07:36:06.496Z,40.36
2022-08-21T07:38:34.631Z,40.08
2022-08-21T07:41:04.225Z,41.22
2022-08-21T07:43:33.908Z,41.30
2022-08-21T07:46:02.629Z,42.02
2022-08-21T07:48:30.668Z,41.40
2022-08-21T07:51:00.389Z,42.82
2022-08-21T07:53:28.478Z,43.13
2022-08-21T07:55:59.921Z,43.70
2022-08-21T07:58:28.025Z,43.66
2022-08-21T08:00:57.452Z,44.03
2022-08-21T08:03:29.170Z,44.04
2022-08-21T08:05:58.754Z,44.31
2022-08-21T08:08:26.744Z,44.32
2022-08-21T08:10:55.765Z,44.48
2022-08-21T08:13:23.666Z,43.59
2022-08-21T08:15:52.815Z,44.45
2022-08-21T08:18:22.037Z,45.18
2022-08-21T08:20:49.924Z,44.92
2022-08-21T08:23:18.061Z,45.90
2022-08-21T08:25:45.902Z,46.35
2022-08-21T08:28:16.534Z,46.22
2022-08-21T08:30:46.222Z,46.32
2022-08-21T08:33:14.226Z,46.93
2022-08-21T08:35:44.516Z,47.33
2022-08-21T08:38:12.335Z,47.35
2022-08-21T08:40:46.076Z,47.15
2022-08-21T08:43:15.113Z,47.21
2022-08-21T08:45:47.961Z,48.40
2022-08-21T08:48:23.945Z,48.43
2022-08-21T08:50:57.796Z,48.92
2022-08-21T08:53:30.771Z,48.77
2022-08-21T08:56:02.112Z,49.20
2022-08-21T08:58:32.859Z,48.86
2022-08-21T09:01:01.445Z,48.46
2022-08-21T09:03:30.125Z,47.88
2022-08-21T09:06:06.199Z,48.67
2022-08-21T09:08:49.915Z,48.35
2022-08-21T09:11:27.845Z,49.72
2022-08-21T09:14:07.702Z,50.46
2022-08-21T09:16:42.928Z,50.96
2022-08-21T09:19:26.083Z,51.37
2022-08-21T09:22:05.382Z,51.01
2022-08-21T09:24:40.105Z,51.83
2022-08-21T09:27:11.566Z,50.80
2022-08-21T09:29:42.049Z,52.13
2022-08-21T09:32:18.660Z,51.65
2022-08-21T09:35:00.983Z,51.25
2022-08-21T09:37:32.125Z,52.24
2022-08-21T09:40:00.489Z,52.68
2022-08-21T09:42:32.979Z,52.44
2022-08-21T09:45:12.341Z,51.96
2022-08-21T09:47:40.374Z,52.08
2022-08-21T09:50:17.596Z,52.50
2022-08-21T09:52:52.313Z,52.31
2022-08-21T09:55:58.943Z,53.39
2022-08-21T09:58:35.290Z,53.39
2022-08-21T10:01:05.623Z,52.69
2022-08-21T10:03:33.932Z,52.57
2022-08-21T10:06:07.288Z,53.22
2022-08-21T10:08:41.502Z,53.18
2022-08-21T10:11:11.712Z,53.46
2022-08-21T10:13:49.953Z,53.44
2022-08-21T10:16:31.034Z,53.93
2022-08-21T10:19:10.123Z,53.92
2022-08-21T10:21:47.186Z,54.08
2022-08-21T10:24:31.452Z,54.02
2022-08-21T10:27:24.649Z,53.55
2022-08-21T10:29:57.084Z,53.51
2022-08-21T10:32:48.917Z,53.88
2022-08-21T10:35:23.943Z,53.57
2022-08-21T10:38:04.554Z,53.62
2022-08-21T10:40:42.742Z,53.94
2022-08-21T10:43:22.984Z,53.72
2022-08-21T10:46:07.782Z,54.47
2022-08-21T10:48:39.003Z,54.50
2022-08-21T10:51:14.985Z,54.23
2022-08-21T10:54:01.742Z,54.00
2022-08-21T10:56:32.875Z,54.01
2022-08-21T10:59:10.842Z,53.94
2022-08-21T11:01:47.046Z,54.04
2022-08-21T11:04:21.708Z,53.42
2022-08-21T11:06:55.419Z,53.05
2022-08-21T11:09:28.257Z,53.09
2022-08-21T11:12:11.237Z,53.63
2022-08-21T11:14:50.579Z,53.18
2022-08-21T11:17:25.256Z,52.69
2022-08-21T11:20:00.476Z,51.96
2022-08-21T11:22:37.186Z,51.77
2022-08-21T11:25:12.752Z,51.32
2022-08-21T11:27:48.499Z,50.53
2022-08-21T11:30:16.660Z,50.86
2022-08-21T11:33:07.092Z,49.76
2022-08-21T11:35:42.798Z,50.07
2022-08-21T11:38:31.323Z,49.75
2022-08-21T11:41:14.324Z,49.61
2022-08-21T11:43:47.327Z,49.10
2022-08-21T11:46:31.064Z,48.31
2022-08-21T11:49:21.116Z,46.62
2022-08-21T11:52:04.220Z,44.42
2022-08-21T11:54:38.919Z,43.08
2022-08-21T11:57:16.589Z,41.99
2022-08-21T12:00:05.894Z,40.77
2022-08-21T12:02:47.562Z,39.45
2022-08-21T12:05:27.271Z,38.03
2022-08-21T12:08:04.958Z,37.91
2022-08-21T12:10:39.568Z,37.37
2022-08-21T12:13:14.659Z,36.65
2022-08-21T12:15:43.894Z,36.28
2022-08-21T12:18:24.511Z,35.81
2022-08-21T12:21:05.538Z,35.33
2022-08-21T12:23:37.833Z,34.96
2022-08-21T12:26:31.681Z,34.61
2022-08-21T12:29:11.853Z,34.20
2022-08-21T12:31:50.952Z,33.78
2022-08-21T12:34:20.178Z,33.39
2022-08-21T12:36:58.259Z,33.10
2022-08-21T12:39:43.797Z,33.02
2022-08-21T12:42:19.607Z,32.86
2022-08-21T12:44:52.563Z,32.05
2022-08-21T12:47:30.452Z,32.07
2022-08-21T12:50:03.703Z,32.06
2022-08-21T12:52:39.420Z,31.84
2022-08-21T12:55:09.627Z,31.64
2022-08-21T12:57:39.690Z,31.33
2022-08-21T13:00:13.033Z,30.81
2022-08-21T13:02:48.336Z,30.54
2022-08-21T13:05:20.909Z,31.04
2022-08-21T13:07:50.197Z,30.40
2022-08-21T13:10:22.321Z,30.99
2022-08-21T13:12:51.050Z,29.71
2022-08-21T13:15:26.780Z,29.41
2022-08-21T13:18:04.742Z,30.32
2022-08-21T13:20:35.426Z,30.07
2022-08-21T13:23:04.169Z,28.37
2022-08-21T13:25:37.415Z,30.47
2022-08-21T13:28:09.890Z,30.48
2022-08-21T13:30:41.136Z,30.42
2022-08-21T13:33:13.202Z,30.42
2022-08-21T13:35:50.825Z,30.39
2022-08-21T13:38:21.444Z,30.03
2022-08-21T13:40:58.672Z,30.30
2022-08-21T13:43:30.466Z,30.35
2022-08-21T13:45:59.779Z,30.35
2022-08-21T13:48:32.867Z,28.64
2022-08-21T13:51:01.758Z,30.02
2022-08-21T13:53:32.679Z,29.84
2022-08-21T13:56:02.607Z,29.55
2022-08-21T13:58:33.038Z,29.69
2022-08-21T14:01:04.905Z,29.23
2022-08-21T14:03:40.403Z,29.54
2022-08-21T14:06:14.592Z,29.07
2022-08-21T14:08:43.874Z,29.35
2022-08-21T14:11:14.597Z,28.51
2022-08-21T14:13:45.291Z,29.35
2022-08-21T14:16:17.516Z,29.22
2022-08-21T14:18:49.674Z,29.01
2022-08-21T14:21:27.013Z,28.82
2022-08-21T14:24:26.911Z,28.72
2022-08-21T14:26:57.832Z,28.66
2022-08-21T14:29:28.422Z,28.75
2022-08-21T14:32:16.578Z,27.55
2022-08-21T14:34:54.901Z,28.76
2022-08-21T14:37:22.975Z,28.53
2022-08-21T14:39:50.844Z,27.96
2022-08-21T14:42:18.992Z,28.47
2022-08-21T14:44:46.867Z,28.50
2022-08-21T14:47:15.038Z,28.15
2022-08-21T14:49:43.840Z,28.44
2022-08-21T14:52:13.071Z,28.40
2022-08-21T14:54:41.362Z,27.88
2022-08-21T14:57:12.881Z,28.29
2022-08-21T14:59:41.934Z,27.24
2022-08-21T15:02:10.850Z,28.05
2022-08-21T15:04:38.737Z,27.97
2022-08-21T15:07:06.649Z,27.95
2022-08-21T15:09:35.834Z,27.95
2022-08-21T15:12:05.200Z,27.95
2022-08-21T15:14:36.591Z,27.98
2022-08-21T15:17:05.664Z,27.59
2022-08-21T15:19:33.596Z,28.13
2022-08-21T15:22:02.029Z,26.81
2022-08-21T15:24:31.576Z,27.88
2022-08-21T15:27:02.976Z,28.48
2022-08-21T15:29:32.626Z,27.70
2022-08-21T15:32:03.549Z,28.39
2022-08-21T15:34:32.780Z,28.53
2022-08-21T15:37:00.692Z,26.39
2022-08-21T15:39:31.553Z,27.81
2022-08-21T15:42:10.908Z,28.71
2022-08-21T15:44:40.647Z,28.72
2022-08-21T15:47:09.457Z,27.53
2022-08-21T15:49:37.985Z,27.50
2022-08-21T15:52:06.095Z,27.96
2022-08-21T15:54:35.584Z,26.18
2022-08-21T15:57:03.688Z,28.48
2022-08-21T15:59:40.492Z,26.88
2022-08-21T16:02:15.652Z,26.97
2022-08-21T16:04:43.975Z,28.26
2022-08-21T16:07:12.145Z,28.19
2022-08-21T16:09:40.180Z,28.14
2022-08-21T16:12:09.325Z,26.73
2022-08-21T16:14:39.460Z,26.99
2022-08-21T16:17:09.060Z,27.53
2022-08-21T16:19:41.552Z,27.68
2022-08-21T16:22:14.495Z,27.67
2022-08-21T16:24:42.587Z,27.61
2022-08-21T16:27:11.112Z,27.52
2022-08-21T16:29:40.960Z,27.22
2022-08-21T16:32:09.962Z,27.38
2022-08-21T16:34:44.532Z,27.30
2022-08-21T16:37:12.602Z,27.30
2022-08-21T16:39:53.256Z,27.00
2022-08-21T16:42:40.293Z,26.30
2022-08-21T16:45:15.379Z,26.75
2022-08-21T16:47:44.596Z,27.08
2022-08-21T16:50:14.524Z,27.05
2022-08-21T16:52:43.224Z,25.75
2022-08-21T16:55:11.280Z,26.92
2022-08-21T16:57:40.001Z,26.85
2022-08-21T17:00:14.076Z,26.59
2022-08-21T17:02:46.377Z,25.25
2022-08-21T17:05:14.938Z,25.70
2022-08-21T17:07:44.144Z,26.11
2022-08-21T17:10:13.683Z,26.14
2022-08-21T17:12:43.861Z,25.48
2022-08-21T17:15:21.633Z,25.08
2022-08-21T17:17:50.407Z,26.30
2022-08-21T17:20:19.697Z,26.05
2022-08-21T17:22:48.058Z,24.43
2022-08-21T17:25:20.551Z,24.95
2022-08-21T17:27:50.447Z,26.19
2022-08-21T17:30:20.939Z,26.14
2022-08-21T17:32:52.610Z,25.99
2022-08-21T17:35:21.069Z,25.99
2022-08-21T17:37:49.237Z,25.91
2022-08-21T17:40:18.059Z,25.56
2022-08-21T17:42:48.279Z,25.87
2022-08-21T17:45:19.054Z,24.60
2022-08-21T17:47:48.635Z,25.37
2022-08-21T17:50:18.772Z,25.72
2022-08-21T17:52:51.127Z,25.67
2022-08-21T17:55:21.044Z,25.21
2022-08-21T17:57:51.240Z,23.84
2022-08-21T18:00:21.277Z,23.96
2022-08-21T18:03:02.340Z,23.91
2022-08-21T18:05:30.830Z,25.21
2022-08-21T18:07:59.469Z,24.08
2022-08-21T18:10:27.965Z,23.58
2022-08-21T18:12:57.533Z,23.30
2022-08-21T18:15:25.966Z,24.00
2022-08-21T18:17:57.487Z,24.28
2022-08-21T18:20:25.853Z,22.61
2022-08-21T18:22:54.952Z,24.34
2022-08-21T18:25:28.815Z,24.20
2022-08-21T18:27:59.727Z,24.05
2022-08-21T18:30:34.583Z,23.91
2022-08-21T18:33:04.498Z,23.76
2022-08-21T18:35:32.936Z,21.73
2022-08-21T18:38:03.587Z,23.48
2022-08-21T18:40:38.123Z,22.98
2022-08-21T18:43:11.100Z,23.18
2022-08-21T18:45:45.886Z,22.35
2022-08-21T18:48:17.922Z,21.06
2022-08-21T18:50:49.098Z,21.50
2022-08-21T18:53:27.896Z,22.37
2022-08-21T18:58:48.945Z,20.27
2022-08-21T19:01:19.857Z,22.12
2022-08-21T19:03:49.955Z,21.06
2022-08-21T19:06:18.523Z,20.89
2022-08-21T19:08:46.659Z,20.90
2022-08-21T19:11:26.109Z,18.41
2022-08-21T19:13:55.065Z,20.67
2022-08-21T19:16:26.682Z,21.76
2022-08-21T19:19:00.727Z,21.00
2022-08-21T19:21:30.376Z,21.26
2022-08-21T19:24:00.746Z,21.44
2022-08-21T19:26:46.312Z,21.34
2022-08-21T19:29:18.619Z,18.02
2022-08-21T19:31:48.565Z,18.23
2022-08-21T19:34:20.929Z,20.43
2022-08-21T19:36:49.329Z,19.36
2022-08-21T19:39:20.479Z,18.28
2022-08-21T19:41:53.512Z,19.44
2022-08-21T19:44:25.096Z,19.36
2022-08-21T19:46:55.023Z,20.61
2022-08-21T19:49:29.604Z,20.37
2022-08-21T19:52:02.096Z,19.07
2022-08-21T19:54:42.519Z,18.79
2022-08-21T19:57:12.148Z,19.44
2022-08-21T19:59:41.576Z,18.23
2022-08-21T20:02:19.759Z,17.61
2022-08-21T20:04:53.766Z,18.84
2022-08-21T20:07:26.513Z,18.99
2022-08-21T20:10:10.970Z,18.05
2022-08-21T20:12:40.935Z,17.29
2022-08-21T20:15:09.787Z,19.66
2022-08-21T20:17:38.734Z,19.51
2022-08-21T20:20:09.124Z,19.35
2022-08-21T20:22:41.643Z,17.91
2022-08-21T20:25:10.045Z,16.84
2022-08-21T20:27:40.506Z,19.25
2022-08-21T20:30:10.712Z,18.69
2022-08-21T20:32:38.770Z,19.33
2022-08-21T20:35:13.592Z,17.49
2022-08-21T20:37:43.522Z,19.16
2022-08-21T20:40:14.154Z,17.73
2022-08-21T20:42:45.249Z,19.17
2022-08-21T20:45:19.052Z,18.75
2022-08-21T20:47:52.608Z,18.95
2022-08-21T20:50:26.773Z,18.55
2022-08-21T20:53:01.856Z,18.81
2022-08-21T20:55:32.094Z,18.67
2022-08-21T20:58:04.750Z,18.11
2022-08-21T21:00:36.914Z,18.91
2022-08-21T21:03:10.633Z,18.97
2022-08-21T21:05:47.114Z,18.86
2022-08-21T21:08:21.383Z,18.68
2022-08-21T21:10:55.145Z,18.70
2022-08-21T21:13:29.007Z,18.91
2022-08-21T21:16:00.447Z,18.86
2022-08-21T21:18:33.258Z,18.41
2022-08-21T21:21:09.416Z,18.83
2022-08-21T21:23:43.166Z,18.80
2022-08-21T21:26:16.660Z,18.76
2022-08-21T21:28:49.680Z,18.51
2022-08-21T21:31:19.149Z,17.63
2022-08-21T21:33:48.336Z,18.66
2022-08-21T21:36:28.609Z,18.64
2022-08-21T21:39:08.256Z,18.62
2022-08-21T21:41:44.714Z,18.49
2022-08-21T21:44:25.880Z,18.54
2022-08-21T21:46:59.522Z,16.22
2022-08-21T21:49:36.558Z,18.46
2022-08-21T21:52:18.983Z,18.42
2022-08-21T21:55:01.436Z,18.39
2022-08-21T21:57:42.972Z,17.50
2022-08-21T22:00:15.694Z,18.33
2022-08-21T22:02:55.763Z,18.33
2022-08-21T22:05:38.637Z,18.31
2022-08-21T22:08:15.125Z,18.20
2022-08-21T22:10:49.630Z,17.33
2022-08-21T22:13:26.537Z,15.17
2022-08-21T22:15:55.514Z,16.56
2022-08-21T22:18:27.512Z,15.80
2022-08-21T22:21:02.387Z,17.60
2022-08-21T22:23:36.985Z,15.34
2022-08-21T22:26:10.241Z,18.04
2022-08-21T22:28:41.780Z,16.87
2022-08-21T22:31:19.424Z,16.21
2022-08-21T22:34:17.969Z,15.69
2022-08-21T22:36:51.676Z,17.68
2022-08-21T22:39:35.890Z,17.83
2022-08-21T22:42:13.532Z,17.80
2022-08-21T22:44:51.773Z,17.67
2022-08-21T22:47:23.234Z,17.74
2022-08-21T22:49:54.101Z,16.96
2022-08-21T22:52:26.753Z,16.51
2022-08-21T22:57:48.140Z,15.19
2022-08-21T23:00:36.416Z,16.62
2022-08-21T23:03:05.076Z,17.57
2022-08-21T23:05:36.654Z,17.55
2022-08-21T23:11:28.505Z,17.40
2022-08-21T23:13:57.077Z,15.39
2022-08-21T23:16:37.343Z,16.90
2022-08-21T23:19:13.476Z,17.06
2022-08-21T23:21:51.812Z,14.86
2022-08-21T23:24:46.733Z,17.16
2022-08-21T23:27:35.770Z,17.09
2022-08-21T23:30:08.669Z,13.98
2022-08-21T23:32:57.984Z,16.69
2022-08-21T23:35:51.136Z,16.39
2022-08-21T23:38:33.039Z,16.67
2022-08-21T23:41:11.109Z,13.59
2022-08-21T23:43:51.513Z,16.68
2022-08-21T23:46:37.558Z,16.21
2022-08-21T23:49:18.103Z,15.41
2022-08-21T23:51:59.692Z,16.27
2022-08-21T23:54:36.039Z,12.93
2022-08-21T23:57:21.843Z,14.49
